Time;durP1;ratioP1;P1;durP2;ratioP2;P2;SDS_P1;SDS_P2;PMS_P1;PMS_P2;Temp;Humidity;BMP_temperature;BMP_pressure;BME280_temperature;BME280_humidity;BME280_pressure;Samples;Min_cycle;Max_cycle;Signal;HPM_P1;HPM_P2
2022/12/21 00:00:53;;;;;;;20.80;11.07;;;;;;;1.70;100.00;100601.28;5019093;28;20205;-72
2022/12/21 00:03:20;;;;;;;21.70;10.43;;;;;;;1.69;100.00;100609.84;5016744;28;20205;-72
2022/12/21 00:05:46;;;;;;;21.33;10.03;;;;;;;1.70;100.00;100605.56;5017343;28;20565;-71
2022/12/21 00:08:13;;;;;;;24.27;11.20;;;;;;;1.70;100.00;100611.56;5017604;28;20667;-72
2022/12/21 00:10:39;;;;;;;27.50;10.37;;;;;;;1.74;100.00;100588.47;5013755;28;20481;-72
2022/12/21 00:13:06;;;;;;;19.83;10.23;;;;;;;1.76;100.00;100577.34;5011719;28;20258;-72
2022/12/21 00:15:33;;;;;;;17.97;10.20;;;;;;;1.78;100.00;100593.66;5017646;28;20211;-73
2022/12/21 00:18:00;;;;;;;21.10;11.13;;;;;;;1.79;100.00;100591.94;5015950;28;20243;-72
2022/12/21 00:20:26;;;;;;;20.53;10.67;;;;;;;1.78;100.00;100591.09;5020528;28;20196;-72
2022/12/21 00:22:52;;;;;;;21.00;10.47;;;;;;;1.78;100.00;100587.66;5015736;28;20231;-72
2022/12/21 00:25:19;;;;;;;21.73;10.80;;;;;;;1.78;100.00;100587.66;5012593;28;20192;-73
2022/12/21 00:27:45;;;;;;;21.50;11.23;;;;;;;1.81;100.00;100600.53;5014912;28;20276;-71
2022/12/21 00:30:12;;;;;;;24.97;11.00;;;;;;;1.81;100.00;100608.22;5017258;28;20709;-73
2022/12/21 00:32:40;;;;;;;24.00;10.93;;;;;;;1.80;100.00;100616.81;5017916;28;20229;-73
2022/12/21 00:35:06;;;;;;;20.93;10.90;;;;;;;1.78;100.00;100611.66;5016533;28;20223;-73
2022/12/21 00:37:32;;;;;;;19.07;10.67;;;;;;;1.78;100.00;100611.66;5017310;28;20674;-73
2022/12/21 00:40:01;;;;;;;21.37;10.10;;;;;;;1.75;100.00;100603.91;5015753;28;20688;-73
2022/12/21 00:42:27;;;;;;;22.97;11.17;;;;;;;1.77;100.00;100612.47;5016891;28;20925;-72
2022/12/21 00:44:54;;;;;;;22.53;11.57;;;;;;;1.75;100.00;100610.75;5009068;28;20204;-73
2022/12/21 00:47:20;;;;;;;21.27;10.33;;;;;;;1.75;100.00;100610.75;5018374;28;20196;-74
2022/12/21 00:49:48;;;;;;;20.37;10.63;;;;;;;1.75;100.00;100613.34;5013558;28;20731;-73
2022/12/21 00:52:14;;;;;;;18.30;10.13;;;;;;;1.75;100.00;100619.31;5016301;28;20677;-73
2022/12/21 00:54:41;;;;;;;22.70;10.87;;;;;;;1.76;100.00;100612.47;5016740;28;20711;-73
2022/12/21 00:57:07;;;;;;;19.07;9.73;;;;;;;1.74;100.00;100602.16;5014332;28;20301;-72
2022/12/21 00:59:34;;;;;;;21.10;10.50;;;;;;;1.73;100.00;100600.47;5018514;28;20188;-72
2022/12/21 01:02:00;;;;;;;18.10;9.03;;;;;;;1.72;100.00;100603.00;5016187;28;20289;-71
2022/12/21 01:04:26;;;;;;;21.30;10.53;;;;;;;1.70;100.00;100611.56;5015199;28;20596;-72
2022/12/21 01:06:54;;;;;;;18.83;9.83;;;;;;;1.73;100.00;100607.31;5016094;28;20200;-72
2022/12/21 01:09:21;;;;;;;20.97;10.03;;;;;;;1.68;100.00;100610.69;5015800;28;20270;-72
2022/12/21 01:11:47;;;;;;;26.27;11.27;;;;;;;1.65;100.00;100613.25;5005403;28;20704;-71
2022/12/21 01:14:14;;;;;;;19.40;9.00;;;;;;;1.65;100.00;100610.69;5018301;28;20286;-71
2022/12/21 01:16:40;;;;;;;21.57;10.93;;;;;;;1.63;100.00;100608.91;5017060;28;20231;-72
2022/12/21 01:19:07;;;;;;;20.77;9.80;;;;;;;1.60;100.00;100608.88;5014211;28;20204;-72
2022/12/21 01:21:35;;;;;;;21.67;10.50;;;;;;;1.61;100.00;100615.75;5030005;23;20250;-70
2022/12/21 01:24:04;;;;;;;23.87;11.53;;;;;;;1.59;100.00;100610.59;4991803;28;20571;-70
2022/12/21 01:26:31;;;;;;;22.83;10.67;;;;;;;1.60;100.00;100607.19;4993180;28;20196;-69
2022/12/21 01:28:58;;;;;;;24.30;11.63;;;;;;;1.59;100.00;100594.31;4993890;28;20251;-69
2022/12/21 01:31:24;;;;;;;21.37;10.53;;;;;;;1.59;100.00;100594.31;5012294;28;20199;-70
2022/12/21 01:33:52;;;;;;;21.57;11.07;;;;;;;1.58;100.00;100595.16;4991792;28;20203;-70
2022/12/21 01:36:19;;;;;;;19.77;10.90;;;;;;;1.56;100.00;100590.00;4992754;28;20212;-70
2022/12/21 01:38:47;;;;;;;21.90;10.80;;;;;;;1.56;100.00;100587.44;4991550;28;20189;-70
2022/12/21 01:41:18;;;;;;;17.93;10.10;;;;;;;1.55;100.00;100577.13;4997137;28;20820;-69
2022/12/21 01:43:49;;;;;;;21.47;11.20;;;;;;;1.54;100.00;100575.44;5009200;28;20200;-68
2022/12/21 01:46:21;;;;;;;20.80;10.03;;;;;;;1.54;100.00;100578.00;5010025;28;20295;-69
2022/12/21 01:48:53;;;;;;;20.03;10.00;;;;;;;1.51;100.00;100574.56;5009313;28;20622;-70
2022/12/21 01:51:20;;;;;;;25.93;10.73;;;;;;;1.52;100.00;100572.84;5002673;28;20263;-69
2022/12/21 01:53:51;;;;;;;24.93;10.87;;;;;;;1.50;100.00;100577.09;5008809;28;20208;-70
2022/12/21 01:56:27;;;;;;;19.20;9.67;;;;;;;1.50;100.00;100569.41;5009489;28;20201;-70
2022/12/21 01:58:53;;;;;;;23.80;9.97;;;;;;;1.49;100.00;100565.94;4995868;28;20201;-69
2022/12/21 02:01:20;;;;;;;21.30;9.83;;;;;;;1.50;100.00;100569.41;4994339;28;20199;-70
2022/12/21 02:03:51;;;;;;;22.13;9.97;;;;;;;1.50;100.00;100559.97;5008628;28;20208;-68
2022/12/21 02:06:21;;;;;;;20.93;10.17;;;;;;;1.51;100.00;100555.69;4989419;28;20215;-70
2022/12/21 02:08:49;;;;;;;22.07;11.00;;;;;;;1.52;100.00;100555.69;5007090;28;20217;-69
2022/12/21 02:11:16;;;;;;;23.50;10.57;;;;;;;1.54;100.00;100553.16;5012194;28;20230;-69
2022/12/21 02:13:44;;;;;;;22.10;10.37;;;;;;;1.54;100.00;100548.00;4999660;28;20232;-68
2022/12/21 02:16:32;;;;;;;18.70;10.10;;;;;;;1.54;100.00;100537.72;5010227;28;20542;-68
2022/12/21 02:19:22;;;;;;;19.87;10.30;;;;;;;1.56;100.00;100538.59;5012265;28;20211;-70
2022/12/21 02:21:55;;;;;;;19.33;9.97;;;;;;;1.57;100.00;100531.78;4992306;28;20240;-70
2022/12/21 02:24:52;;;;;;;19.63;10.00;;;;;;;1.59;100.00;100514.66;5016883;28;20196;-70
2022/12/21 02:28:03;;;;;;;19.17;9.60;;;;;;;1.61;100.00;100515.53;5016774;28;20205;-70
2022/12/21 02:31:03;;;;;;;19.53;10.23;;;;;;;1.65;100.00;100520.72;4994117;28;20238;-69
2022/12/21 02:33:42;;;;;;;22.67;10.73;;;;;;;1.67;100.00;100523.28;5010904;28;20244;-70
2022/12/21 02:36:23;;;;;;;23.83;11.53;;;;;;;1.67;100.00;100526.72;5016868;28;20740;-69
2022/12/21 02:38:53;;;;;;;20.40;10.23;;;;;;;1.69;100.00;100526.75;4997409;28;20236;-68
2022/12/21 02:41:35;;;;;;;18.07;9.30;;;;;;;1.72;100.00;100524.16;5016545;28;20697;-70
2022/12/21 02:44:13;;;;;;;20.47;10.47;;;;;;;1.73;100.00;100519.91;4994371;28;20323;-70
2022/12/21 02:46:49;;;;;;;20.67;9.57;;;;;;;1.75;100.00;100508.78;5011684;28;20207;-68
2022/12/21 02:49:20;;;;;;;22.83;10.53;;;;;;;1.77;100.00;100512.22;4998669;28;20212;-68
2022/12/21 02:51:52;;;;;;;23.73;10.80;;;;;;;1.79;100.00;100507.09;4991475;28;20252;-68
2022/12/21 02:54:20;;;;;;;23.47;10.03;;;;;;;1.81;100.00;100503.69;5011873;28;20209;-70
2022/12/21 02:56:46;;;;;;;23.27;10.03;;;;;;;1.83;100.00;100502.00;5012567;28;20204;-70
2022/12/21 02:59:17;;;;;;;18.63;9.90;;;;;;;1.84;100.00;100497.72;4996945;28;20564;-70
2022/12/21 03:02:00;;;;;;;20.03;9.70;;;;;;;1.87;100.00;100497.75;4992549;28;20616;-69
2022/12/21 03:04:45;;;;;;;14.80;8.17;;;;;;;1.95;100.00;100479.78;5014450;28;20565;-70
2022/12/21 03:07:28;;;;;;;17.47;9.73;;;;;;;1.97;100.00;100458.38;4996545;28;20617;-70
2022/12/21 03:10:03;;;;;;;18.37;9.00;;;;;;;2.00;100.00;100457.53;4999300;28;21497;-70
2022/12/21 03:12:43;;;;;;;16.83;9.23;;;;;;;2.01;100.00;100495.28;4991863;28;20273;-70
2022/12/21 03:15:18;;;;;;;21.43;9.87;;;;;;;2.02;100.00;100532.97;5016458;28;20197;-70
2022/12/21 03:17:54;;;;;;;18.07;9.33;;;;;;;2.04;100.00;100528.69;4997285;28;20201;-69
2022/12/21 03:20:26;;;;;;;20.33;9.77;;;;;;;2.04;100.00;100521.00;5012654;28;20226;-69
2022/12/21 03:22:57;;;;;;;18.97;10.10;;;;;;;2.04;100.00;100516.72;4998530;28;20511;-70
2022/12/21 03:25:27;;;;;;;17.43;9.03;;;;;;;2.06;100.00;100504.72;5013455;28;20204;-70
2022/12/21 03:27:57;;;;;;;17.50;9.77;;;;;;;2.07;100.00;100495.28;5016168;28;20200;-70
2022/12/21 03:30:26;;;;;;;19.00;8.87;;;;;;;2.07;100.00;100492.72;5020120;28;20722;-69
2022/12/21 03:33:00;;;;;;;19.13;8.93;;;;;;;2.09;100.00;100493.59;5013151;28;20224;-70
2022/12/21 03:35:30;;;;;;;20.97;9.77;;;;;;;2.10;100.00;100479.03;5014411;28;20204;-70
2022/12/21 03:38:01;;;;;;;18.50;9.10;;;;;;;2.10;100.00;100484.19;4996619;28;20279;-70
2022/12/21 03:40:31;;;;;;;23.03;9.97;;;;;;;2.12;100.00;100478.19;5014492;28;20576;-70
2022/12/21 03:43:02;;;;;;;17.20;8.73;;;;;;;2.13;100.00;100481.59;5015029;28;20219;-70
2022/12/21 03:45:34;;;;;;;17.70;9.37;;;;;;;2.13;100.00;100468.75;5014091;28;20393;-70
2022/12/21 03:48:07;;;;;;;16.27;8.20;;;;;;;2.12;100.00;100469.63;5015955;28;20207;-69
2022/12/21 03:50:38;;;;;;;18.23;9.13;;;;;;;2.11;100.00;100468.75;5016292;28;20223;-70
2022/12/21 03:53:14;;;;;;;18.80;9.20;;;;;;;2.10;100.00;100473.91;5015753;28;20594;-70
2022/12/21 03:55:44;;;;;;;16.97;8.90;;;;;;;2.07;100.00;100474.72;5013471;28;20754;-70
2022/12/21 03:58:11;;;;;;;20.33;9.67;;;;;;;2.07;100.00;100474.72;5015499;28;20646;-70
2022/12/21 04:00:50;;;;;;;16.87;9.50;;;;;;;2.04;100.00;100483.28;5001338;28;20204;-70
2022/12/21 04:03:25;;;;;;;19.00;10.13;;;;;;;2.00;100.00;100472.97;5017008;28;20231;-68
2022/12/21 04:05:55;;;;;;;16.03;9.13;;;;;;;1.98;100.00;100472.94;5013741;28;20583;-69
2022/12/21 04:08:23;;;;;;;20.67;10.37;;;;;;;1.96;100.00;100464.38;5016264;28;20204;-70
2022/12/21 04:10:49;;;;;;;19.10;9.70;;;;;;;1.95;100.00;100462.63;5011939;28;20224;-68
2022/12/21 04:13:15;;;;;;;21.23;9.77;;;;;;;1.98;100.00;100456.66;5014057;28;20224;-70
2022/12/21 04:21:11;;;;;;;18.57;9.17;;;;;;;1.97;100.00;100460.97;5011750;28;20673;-70
2022/12/21 04:29:06;;;;;;;16.03;7.87;;;;;;;1.99;100.00;100456.69;5008592;28;20200;-70
2022/12/21 04:31:32;;;;;;;17.57;9.00;;;;;;;1.98;100.00;100457.53;5012759;28;20704;-70
2022/12/21 04:34:00;;;;;;;19.47;9.63;;;;;;;2.01;100.00;100451.56;5013009;28;20685;-69
2022/12/21 04:39:11;;;;;;;17.53;9.07;;;;;;;2.03;100.00;100457.56;5015627;28;20685;-70
2022/12/21 04:41:37;;;;;;;19.47;8.97;;;;;;;2.03;100.00;100452.41;5014905;28;21060;-70
2022/12/21 04:44:04;;;;;;;17.23;9.27;;;;;;;2.04;100.00;100451.53;5011131;28;20226;-70
2022/12/21 04:46:30;;;;;;;17.20;9.67;;;;;;;2.04;100.00;100446.41;5012128;28;20660;-69
2022/12/21 04:48:57;;;;;;;18.80;10.03;;;;;;;2.04;100.00;100442.16;5010550;28;20576;-70
2022/12/21 04:51:25;;;;;;;18.87;9.23;;;;;;;2.06;100.00;100437.88;5010127;28;20566;-70
2022/12/21 04:53:52;;;;;;;15.83;8.73;;;;;;;2.05;100.00;100435.28;5013504;28;20542;-70
2022/12/21 04:56:19;;;;;;;16.87;9.17;;;;;;;2.07;100.00;100441.28;5017141;28;20215;-70
2022/12/21 04:58:46;;;;;;;16.17;8.50;;;;;;;2.08;100.00;100435.31;5015669;28;20562;-70
2022/12/21 05:01:14;;;;;;;16.43;8.83;;;;;;;2.09;100.00;100442.16;5013172;28;20286;-69
2022/12/21 05:03:40;;;;;;;16.60;8.43;;;;;;;2.10;100.00;100441.31;5011502;28;20204;-69
2022/12/21 05:06:07;;;;;;;15.90;9.00;;;;;;;2.11;100.00;100439.59;5014438;28;20201;-70
2022/12/21 05:08:35;;;;;;;16.77;9.10;;;;;;;2.10;100.00;100443.03;5012626;28;20196;-70
2022/12/21 05:11:08;;;;;;;17.03;9.07;;;;;;;2.11;100.00;100444.72;5011274;28;20294;-70
2022/12/21 05:13:35;;;;;;;16.23;7.93;;;;;;;2.10;100.00;100436.16;5014409;28;20204;-69
2022/12/21 05:16:02;;;;;;;14.90;7.90;;;;;;;2.08;100.00;100436.16;5011354;28;20613;-70
2022/12/21 05:18:29;;;;;;;18.70;8.43;;;;;;;2.10;100.00;100437.88;5016905;28;20204;-69
2022/12/21 05:20:56;;;;;;;17.23;8.50;;;;;;;2.09;100.00;100439.56;5018996;28;20200;-69
2022/12/21 05:23:22;;;;;;;17.70;8.07;;;;;;;2.12;100.00;100426.75;5016614;28;20240;-69
2022/12/21 05:25:50;;;;;;;16.93;8.93;;;;;;;2.13;100.00;100438.75;4998919;28;20206;-70
2022/12/21 05:28:16;;;;;;;14.67;8.23;;;;;;;2.15;100.00;100429.34;5016460;28;20199;-70
2022/12/21 05:30:43;;;;;;;15.97;7.90;;;;;;;2.16;100.00;100430.19;5012581;28;20700;-69
2022/12/21 05:33:09;;;;;;;16.33;8.90;;;;;;;2.14;100.00;100429.31;5012392;28;20270;-70
2022/12/21 05:35:39;;;;;;;15.33;7.97;;;;;;;2.12;100.00;100434.47;5013663;28;20609;-68
2022/12/21 05:38:06;;;;;;;14.87;8.50;;;;;;;2.12;100.00;100431.88;5015079;28;20483;-70
2022/12/21 05:40:33;;;;;;;18.53;8.13;;;;;;;2.08;100.00;100436.16;5009966;28;20199;-69
2022/12/21 05:43:00;;;;;;;15.77;8.77;;;;;;;2.06;100.00;100432.72;5010082;28;20262;-69
2022/12/21 05:45:26;;;;;;;17.73;8.50;;;;;;;2.07;100.00;100443.84;5010844;28;20196;-70
2022/12/21 05:47:54;;;;;;;18.87;8.97;;;;;;;2.06;100.00;100447.31;5014586;28;20211;-70
2022/12/21 05:50:20;;;;;;;17.57;9.13;;;;;;;2.06;100.00;100448.16;5020481;28;20640;-70
2022/12/21 05:52:47;;;;;;;15.73;8.37;;;;;;;2.06;100.00;100448.16;5017582;28;20216;-69
2022/12/21 05:55:13;;;;;;;19.23;9.37;;;;;;;2.04;100.00;100449.84;5013238;28;20270;-70
2022/12/21 05:57:40;;;;;;;14.57;8.00;;;;;;;2.06;100.00;100443.00;5016102;28;20205;-69
2022/12/21 06:00:09;;;;;;;15.23;8.40;;;;;;;2.06;100.00;100447.31;5013065;28;20228;-70
2022/12/21 06:02:38;;;;;;;18.60;9.50;;;;;;;2.05;100.00;100445.56;5020921;28;20236;-70
2022/12/21 06:05:05;;;;;;;22.53;13.03;;;;;;;2.06;100.00;100449.88;5019823;28;20597;-70
2022/12/21 06:07:32;;;;;;;18.00;10.10;;;;;;;2.08;100.00;100446.44;5016186;28;20300;-70
2022/12/21 06:09:59;;;;;;;17.17;9.87;;;;;;;2.08;100.00;100446.44;5017482;28;20222;-70
2022/12/21 06:12:25;;;;;;;16.50;8.33;;;;;;;2.10;100.00;100441.31;5014305;28;20307;-70
2022/12/21 06:14:51;;;;;;;18.23;9.40;;;;;;;2.13;100.00;100443.91;5013649;28;20204;-68
2022/12/21 06:17:19;;;;;;;18.23;9.43;;;;;;;2.13;100.00;100427.59;5000525;28;20200;-69
2022/12/21 06:19:46;;;;;;;15.47;9.37;;;;;;;2.12;100.00;100438.75;4998761;28;20607;-69
2022/12/21 06:22:12;;;;;;;14.90;9.27;;;;;;;2.13;100.00;100425.00;5015045;28;20220;-70
2022/12/21 06:24:38;;;;;;;18.67;9.60;;;;;;;2.13;100.00;100428.47;5018155;28;20550;-69
2022/12/21 06:27:05;;;;;;;17.57;9.10;;;;;;;2.14;100.00;100437.03;5015756;28;20276;-70
2022/12/21 06:29:31;;;;;;;19.30;9.37;;;;;;;2.14;100.00;100431.91;5015672;28;20787;-70
2022/12/21 06:31:58;;;;;;;16.70;8.80;;;;;;;2.14;100.00;100429.31;5015353;28;20517;-69
2022/12/21 06:34:25;;;;;;;15.73;8.43;;;;;;;2.16;100.00;100430.19;5017935;28;20204;-68
2022/12/21 06:36:52;;;;;;;19.07;9.17;;;;;;;2.16;100.00;100438.75;5011791;28;20283;-70
2022/12/21 06:39:18;;;;;;;18.67;8.90;;;;;;;2.16;100.00;100437.91;5018339;28;20204;-70
2022/12/21 06:41:44;;;;;;;16.50;9.47;;;;;;;2.18;100.00;100429.34;5018947;28;20231;-68
2022/12/21 06:44:11;;;;;;;15.93;8.07;;;;;;;2.16;100.00;100438.75;5019533;28;20545;-70
2022/12/21 06:46:37;;;;;;;19.13;9.03;;;;;;;2.17;100.00;100440.50;5019406;28;20273;-70
2022/12/21 06:49:04;;;;;;;15.77;8.73;;;;;;;2.18;100.00;100447.38;5019640;28;20223;-70
2022/12/21 06:51:32;;;;;;;18.63;9.80;;;;;;;2.18;100.00;100444.78;5016493;28;20234;-70
2022/12/21 06:53:58;;;;;;;16.23;8.20;;;;;;;2.20;100.00;100450.81;5018882;28;20212;-69
2022/12/21 06:56:27;;;;;;;15.63;8.17;;;;;;;2.20;100.00;100448.22;5001179;28;20742;-70
2022/12/21 06:58:55;;;;;;;16.73;8.30;;;;;;;2.22;100.00;100438.81;5018088;28;20620;-70
2022/12/21 07:01:24;;;;;;;15.27;8.30;;;;;;;2.24;100.00;100444.81;5015616;28;20196;-68
2022/12/21 07:03:51;;;;;;;16.20;8.70;;;;;;;2.26;100.00;100444.81;5010772;28;20297;-70
2022/12/21 07:06:19;;;;;;;16.20;8.93;;;;;;;2.25;100.00;100449.13;4997183;28;20576;-70
2022/12/21 07:08:48;;;;;;;14.80;8.27;;;;;;;2.26;100.00;100457.69;5013085;28;20199;-70
2022/12/21 07:11:16;;;;;;;16.03;7.87;;;;;;;2.28;100.00;100445.69;5009905;28;20224;-68
2022/12/21 07:13:45;;;;;;;17.43;8.40;;;;;;;2.28;100.00;100438.81;5016278;28;20204;-70
2022/12/21 07:16:13;;;;;;;23.43;8.87;;;;;;;2.28;100.00;100453.41;5016930;28;20216;-69
2022/12/21 07:18:40;;;;;;;20.00;9.30;;;;;;;2.28;100.00;100459.41;5015635;28;20211;-70
2022/12/21 07:21:10;;;;;;;18.13;9.57;;;;;;;2.30;100.00;100456.00;5013449;28;20204;-70
2022/12/21 07:23:40;;;;;;;14.17;8.63;;;;;;;2.29;100.00;100460.28;5031878;28;20212;-71
2022/12/21 07:26:08;;;;;;;14.93;7.90;;;;;;;2.30;100.00;100453.41;4994010;28;20668;-71
2022/12/21 07:28:35;;;;;;;14.07;8.27;;;;;;;2.31;100.00;100452.56;4999562;28;20559;-72
2022/12/21 07:31:03;;;;;;;16.40;8.40;;;;;;;2.31;100.00;100457.72;4995323;28;20208;-72
2022/12/21 07:33:30;;;;;;;15.13;8.67;;;;;;;2.32;100.00;100465.41;4998496;28;20575;-72
2022/12/21 07:35:58;;;;;;;21.83;10.30;;;;;;;2.30;100.00;100471.44;4998454;28;20575;-72
2022/12/21 07:38:24;;;;;;;16.73;8.57;;;;;;;2.31;100.00;100471.44;5001577;28;20218;-72
2022/12/21 07:40:50;;;;;;;16.33;9.07;;;;;;;2.32;100.00;100459.41;4999167;28;20236;-72
2022/12/21 07:43:18;;;;;;;15.50;8.40;;;;;;;2.32;100.00;100470.56;4995568;28;20224;-72
2022/12/21 07:46:01;;;;;;;16.97;9.03;;;;;;;2.33;100.00;100471.44;4994383;28;20707;-71
2022/12/21 07:48:28;;;;;;;16.30;9.10;;;;;;;2.33;100.00;100469.72;5000006;28;20663;-72
2022/12/21 07:50:55;;;;;;;14.30;8.47;;;;;;;2.36;100.00;100461.19;4998174;28;20641;-73
2022/12/21 07:53:21;;;;;;;19.07;9.57;;;;;;;2.37;100.00;100463.72;5000675;28;20216;-72
2022/12/21 07:55:48;;;;;;;16.20;8.43;;;;;;;2.40;100.00;100455.19;5002043;28;20200;-72
2022/12/21 07:58:14;;;;;;;18.27;10.50;;;;;;;2.40;100.00;100458.59;5002808;28;20204;-72
2022/12/21 08:00:42;;;;;;;19.80;9.83;;;;;;;2.41;100.00;100467.19;4996678;28;20243;-72
2022/12/21 08:03:09;;;;;;;19.90;9.47;;;;;;;2.40;100.00;100466.31;4996077;28;20227;-72
2022/12/21 08:05:35;;;;;;;18.00;9.57;;;;;;;2.41;100.00;100465.50;4997867;28;20224;-72
2022/12/21 08:08:03;;;;;;;19.90;10.27;;;;;;;2.44;100.00;100462.91;5001775;28;20194;-73
2022/12/21 08:10:30;;;;;;;19.47;9.20;;;;;;;2.45;100.00;100461.22;4998015;28;20221;-72
2022/12/21 08:12:56;;;;;;;15.17;9.07;;;;;;;2.45;100.00;100462.06;5001039;28;20232;-72
2022/12/21 08:15:23;;;;;;;17.57;9.30;;;;;;;2.46;100.00;100456.09;4998666;28;20284;-72
2022/12/21 08:17:51;;;;;;;17.83;9.47;;;;;;;2.48;100.00;100466.38;4996046;28;20520;-72
2022/12/21 08:20:18;;;;;;;18.40;10.00;;;;;;;2.51;100.00;100462.94;5001100;28;20554;-72
2022/12/21 08:22:45;;;;;;;21.07;9.27;;;;;;;2.52;100.00;100469.84;4999002;28;20221;-72
2022/12/21 08:25:11;;;;;;;21.83;9.93;;;;;;;2.53;100.00;100474.09;5000598;28;20505;-72
2022/12/21 08:27:38;;;;;;;18.37;10.13;;;;;;;2.55;100.00;100469.81;4995456;28;20211;-72
2022/12/21 08:30:06;;;;;;;21.10;10.73;;;;;;;2.56;100.00;100476.69;5000014;28;20205;-72
2022/12/21 08:32:32;;;;;;;20.97;10.37;;;;;;;2.58;100.00;100467.25;4999344;28;20230;-72
2022/12/21 08:35:00;;;;;;;19.20;9.47;;;;;;;2.61;100.00;100467.28;4992891;28;20561;-72
2022/12/21 08:37:26;;;;;;;19.23;10.27;;;;;;;2.63;100.00;100476.72;4997667;28;20209;-72
2022/12/21 08:39:53;;;;;;;19.70;10.10;;;;;;;2.65;100.00;100474.16;4997045;28;20271;-72
2022/12/21 08:42:19;;;;;;;20.33;9.93;;;;;;;2.67;100.00;100472.44;5000656;28;20465;-72
2022/12/21 08:44:46;;;;;;;20.13;9.70;;;;;;;2.69;100.00;100480.19;4997610;28;20393;-72
2022/12/21 08:47:13;;;;;;;21.40;9.73;;;;;;;2.70;100.00;100484.47;4999527;28;20203;-72
2022/12/21 08:49:39;;;;;;;18.30;9.60;;;;;;;2.69;100.00;100483.63;4994551;28;20205;-72
2022/12/21 08:52:07;;;;;;;20.90;11.07;;;;;;;2.70;100.00;100485.34;4991315;28;20231;-72
2022/12/21 08:54:34;;;;;;;18.90;10.30;;;;;;;2.73;100.00;100481.94;5000527;28;20287;-72
2022/12/21 08:57:01;;;;;;;22.57;9.60;;;;;;;2.71;100.00;100488.75;4997446;28;20211;-72
2022/12/21 08:59:27;;;;;;;19.07;10.07;;;;;;;2.72;100.00;100491.34;5000868;28;20567;-72
2022/12/21 09:01:53;;;;;;;20.33;9.73;;;;;;;2.74;100.00;100488.78;4998664;28;20196;-72
2022/12/21 09:04:20;;;;;;;18.73;10.17;;;;;;;2.74;100.00;100489.63;4996395;28;20200;-72
2022/12/21 09:06:46;;;;;;;21.47;10.60;;;;;;;2.74;100.00;100484.47;4993900;28;20197;-72
2022/12/21 09:09:14;;;;;;;24.63;10.87;;;;;;;2.75;100.00;100488.78;4998304;28;20761;-73
2022/12/21 09:11:40;;;;;;;21.70;10.70;;;;;;;2.76;100.00;100495.69;5000212;28;20228;-72
2022/12/21 09:14:07;;;;;;;17.10;10.23;;;;;;;2.78;100.00;100500.78;4996589;28;20574;-72
2022/12/21 09:16:33;;;;;;;19.13;10.20;;;;;;;2.78;100.00;100493.06;4998983;28;20295;-72
2022/12/21 09:18:59;;;;;;;22.93;10.30;;;;;;;2.78;100.00;100493.97;4998143;28;20209;-72
2022/12/21 09:21:26;;;;;;;19.30;10.03;;;;;;;2.82;100.00;100487.09;4995345;28;20413;-72
2022/12/21 09:23:52;;;;;;;20.83;9.93;;;;;;;2.82;100.00;100495.69;4997565;28;20251;-72
2022/12/21 09:26:20;;;;;;;24.63;12.43;;;;;;;2.83;100.00;100493.94;5000194;28;20293;-72
2022/12/21 09:28:46;;;;;;;23.50;10.87;;;;;;;2.83;100.00;100500.00;5005050;28;20302;-72
2022/12/21 09:31:15;;;;;;;23.07;10.53;;;;;;;2.85;100.00;100502.56;5000929;28;20207;-72
2022/12/21 09:33:43;;;;;;;21.47;11.63;;;;;;;2.87;100.00;100502.53;5002406;28;20332;-72
2022/12/21 09:36:11;;;;;;;24.23;12.13;;;;;;;2.87;100.00;100505.13;5000242;28;20210;-72
2022/12/21 09:38:37;;;;;;;25.07;12.17;;;;;;;2.87;100.00;100493.13;4999596;28;20291;-72
2022/12/21 09:41:38;;;;;;;22.30;11.73;;;;;;;2.90;100.00;100487.97;5002789;28;20192;-72
2022/12/21 09:44:33;;;;;;;24.97;12.60;;;;;;;2.90;100.00;100480.25;5006656;28;20200;-71
2022/12/21 09:47:03;;;;;;;19.87;10.60;;;;;;;2.92;100.00;100480.25;5000174;28;20211;-72
2022/12/21 09:49:39;;;;;;;17.57;10.03;;;;;;;2.93;100.00;100464.81;5003249;28;20497;-72
2022/12/21 09:52:12;;;;;;;23.93;11.53;;;;;;;2.96;100.00;100461.41;4999734;28;20231;-72
2022/12/21 09:54:44;;;;;;;20.80;10.07;;;;;;;2.99;100.00;100471.69;4999248;28;20196;-72
2022/12/21 09:57:13;;;;;;;25.77;10.73;;;;;;;3.02;100.00;100469.97;5000342;28;20202;-72
2022/12/21 09:59:40;;;;;;;19.63;9.43;;;;;;;3.02;100.00;100476.84;5003688;28;20539;-72
2022/12/21 10:02:19;;;;;;;19.90;10.70;;;;;;;3.00;100.00;100473.41;5000472;28;20772;-72
2022/12/21 10:05:01;;;;;;;20.77;10.43;;;;;;;2.98;100.00;100475.97;5000797;28;20561;-72
2022/12/21 10:07:50;;;;;;;22.87;11.47;;;;;;;2.97;100.00;100478.53;4999620;28;20189;-72
2022/12/21 10:10:24;;;;;;;25.00;12.27;;;;;;;2.96;100.00;100475.13;5002178;28;20234;-73
2022/12/21 10:12:59;;;;;;;22.63;11.07;;;;;;;2.96;100.00;100474.28;5000555;28;20231;-72
2022/12/21 10:15:32;;;;;;;22.90;11.67;;;;;;;2.94;100.00;100471.69;5001579;28;20208;-72
2022/12/21 10:18:10;;;;;;;25.87;11.60;;;;;;;2.96;100.00;100467.41;4997322;28;21005;-72
2022/12/21 10:20:49;;;;;;;22.60;11.17;;;;;;;2.97;100.00;100463.09;4996823;28;20208;-72
2022/12/21 10:23:21;;;;;;;25.03;12.27;;;;;;;2.98;100.00;100464.81;4999622;28;20295;-71
2022/12/21 10:25:50;;;;;;;21.93;10.13;;;;;;;3.00;100.00;100455.38;5000755;28;20284;-72
2022/12/21 10:28:38;;;;;;;20.83;10.43;;;;;;;3.01;100.00;100455.38;4999058;28;20199;-72
2022/12/21 10:31:07;;;;;;;20.00;9.97;;;;;;;3.01;100.00;100457.97;5001926;28;21141;-72
2022/12/21 10:33:38;;;;;;;24.73;11.53;;;;;;;3.03;100.00;100461.41;5000727;28;20213;-72
2022/12/21 10:36:06;;;;;;;22.10;10.23;;;;;;;3.03;100.00;100456.25;5000036;28;20196;-72
2022/12/21 10:38:34;;;;;;;21.27;10.43;;;;;;;3.06;100.00;100444.22;5003312;28;20188;-72
2022/12/21 10:41:05;;;;;;;21.53;10.33;;;;;;;3.08;100.00;100439.94;5001419;28;20204;-72
2022/12/21 10:43:37;;;;;;;20.00;10.03;;;;;;;3.12;100.00;100439.09;5004114;28;20521;-72
2022/12/21 10:46:05;;;;;;;20.97;10.97;;;;;;;3.15;100.00;100427.06;5003882;28;20217;-72
2022/12/21 10:48:31;;;;;;;23.33;10.87;;;;;;;3.18;100.00;100428.78;5004705;28;20382;-72
2022/12/21 10:51:04;;;;;;;18.53;9.87;;;;;;;3.19;100.00;100426.22;5002323;28;20200;-72
2022/12/21 10:53:30;;;;;;;20.07;9.67;;;;;;;3.20;100.00;100422.78;4997919;28;20593;-72
2022/12/21 10:55:59;;;;;;;19.30;9.90;;;;;;;3.21;100.00;100415.91;5003307;28;20193;-72
2022/12/21 10:58:29;;;;;;;22.43;10.43;;;;;;;3.21;100.00;100416.75;5003606;28;20773;-72
2022/12/21 11:01:01;;;;;;;19.30;9.90;;;;;;;3.23;100.00;100419.34;5005514;28;20634;-72
2022/12/21 11:03:31;;;;;;;21.73;10.83;;;;;;;3.21;100.00;100414.19;5000720;28;20570;-72
2022/12/21 11:05:58;;;;;;;20.40;10.67;;;;;;;3.22;100.00;100418.50;5004776;28;20193;-71
2022/12/21 11:08:29;;;;;;;21.17;11.13;;;;;;;3.20;100.00;100415.06;5003978;28;20556;-72
2022/12/21 11:10:58;;;;;;;23.33;11.17;;;;;;;3.20;100.00;100409.03;4998712;28;20668;-72
2022/12/21 11:13:26;;;;;;;21.20;10.10;;;;;;;3.22;100.00;100402.19;5004843;28;20588;-72
2022/12/21 11:15:57;;;;;;;22.33;9.80;;;;;;;3.25;100.00;100401.31;5003824;28;20212;-72
2022/12/21 11:18:44;;;;;;;19.23;9.47;;;;;;;3.30;100.00;100402.16;5004651;28;20193;-72
2022/12/21 11:21:32;;;;;;;18.73;9.97;;;;;;;3.33;100.00;100402.19;5003391;28;20636;-72
2022/12/21 11:24:02;;;;;;;19.67;9.20;;;;;;;3.38;100.00;100405.63;5001892;28;22022;-72
2022/12/21 11:26:35;;;;;;;21.63;10.23;;;;;;;3.42;100.00;100397.00;4998311;28;20197;-72
2022/12/21 11:29:04;;;;;;;18.27;9.50;;;;;;;3.44;100.00;100399.59;5000891;28;20412;-72
2022/12/21 11:31:32;;;;;;;17.70;9.10;;;;;;;3.46;100.00;100400.44;5002565;28;20205;-72
2022/12/21 11:34:00;;;;;;;17.73;10.47;;;;;;;3.47;100.00;100402.19;5001841;28;20589;-72
2022/12/21 11:36:27;;;;;;;17.13;9.17;;;;;;;3.46;100.00;100411.59;5002961;28;20200;-72
2022/12/21 11:38:54;;;;;;;18.40;9.37;;;;;;;3.48;100.00;100406.47;5001311;28;20203;-72